Dublin, Texas
Current Conditions -  °F | °C
As of 7:55 AM on Thursday 23 Oct 2014 (Local Time) from KSEP Reporting Station
Broken Clouds Broken Clouds  
Wind Chill: 63°   Ceiling: 12000
Heat Index: 63°   Visibility: 10mi
Dew Point: 57°   Wind: 0mph
Humidity: 80%   Direction: NA
Pressure: 30.15"   Gusts: NA
Location:  32.09°N, 98.34°W
Report Text: KSEP 231255Z AUTO 00000KT 10SM BKN120 17/14 A3015 RMK AO2 T01720138
Loading
Personal Weather Stations






























Interactive Weather Map
Tropical Storm Tracking
New forecast layout! Learn more

10-Day Weather Forecast

Advertisements
Track Severe Weather on mobile